createdAt,value
2022-09-15T00:01:19.082Z,17.40
2022-09-15T00:04:05.683Z,17.40
2022-09-15T00:06:51.573Z,17.40
2022-09-15T00:09:37.661Z,17.30
2022-09-15T00:12:23.352Z,17.30
2022-09-15T00:15:13.303Z,17.20
2022-09-15T00:17:58.845Z,17.20
2022-09-15T00:20:45.422Z,17.30
2022-09-15T00:23:31.004Z,17.30
2022-09-15T00:26:19.583Z,17.10
2022-09-15T00:29:06.088Z,17.20
2022-09-15T00:31:52.011Z,17.10
2022-09-15T00:34:37.617Z,17.10
2022-09-15T00:37:23.523Z,17.10
2022-09-15T00:40:09.537Z,17.10
2022-09-15T00:42:54.871Z,17.10
2022-09-15T00:45:40.712Z,17.20
2022-09-15T00:48:26.519Z,17.10
2022-09-15T00:51:16.775Z,17.00
2022-09-15T00:54:06.709Z,17.00
2022-09-15T00:56:55.969Z,17.00
2022-09-15T00:59:42.828Z,17.00
2022-09-15T01:02:33.040Z,17.10
2022-09-15T01:05:21.868Z,17.10
2022-09-15T01:08:11.187Z,17.00
2022-09-15T01:10:57.632Z,17.00
2022-09-15T01:13:44.609Z,16.90
2022-09-15T01:16:59.397Z,16.90
2022-09-15T01:20:09.424Z,16.80
2022-09-15T01:23:13.796Z,16.80
2022-09-15T01:26:02.796Z,16.70
2022-09-15T01:29:06.592Z,16.70
2022-09-15T01:32:40.052Z,16.70
2022-09-15T01:35:25.775Z,16.70
2022-09-15T01:38:15.531Z,16.60
2022-09-15T01:41:07.075Z,16.60
2022-09-15T01:44:05.234Z,16.60
2022-09-15T01:46:57.150Z,16.60
2022-09-15T01:49:52.000Z,18.60
2022-09-15T01:52:43.555Z,16.60
2022-09-15T01:55:47.146Z,16.50
2022-09-15T01:58:33.919Z,16.40
2022-09-15T02:01:40.580Z,16.40
2022-09-15T02:04:30.152Z,16.40
2022-09-15T02:07:25.920Z,16.30
2022-09-15T02:10:15.168Z,16.30
2022-09-15T02:13:25.673Z,16.20
2022-09-15T02:16:39.221Z,16.30
2022-09-15T02:19:38.172Z,16.30
2022-09-15T02:22:34.694Z,16.40
2022-09-15T02:25:29.020Z,16.30
2022-09-15T02:28:17.140Z,16.40
2022-09-15T02:31:07.128Z,16.30
2022-09-15T02:34:00.458Z,16.30
2022-09-15T02:36:48.361Z,16.20
2022-09-15T02:39:37.723Z,16.20
2022-09-15T02:42:28.673Z,16.10
2022-09-15T02:45:14.611Z,16.20
2022-09-15T02:48:00.677Z,16.20
2022-09-15T02:50:46.439Z,16.20
2022-09-15T02:53:31.822Z,16.20
2022-09-15T02:56:18.241Z,16.20
2022-09-15T02:59:03.601Z,16.10
2022-09-15T03:01:49.175Z,16.10
2022-09-15T03:04:34.465Z,16.10
2022-09-15T03:07:20.348Z,16.10
2022-09-15T03:10:07.609Z,16.20
2022-09-15T03:12:54.698Z,16.00
2022-09-15T03:15:40.226Z,16.10
2022-09-15T03:18:25.764Z,16.10
2022-09-15T03:21:14.141Z,16.10
2022-09-15T03:24:00.550Z,16.20
2022-09-15T03:26:49.893Z,16.20
2022-09-15T03:29:35.533Z,16.20
2022-09-15T03:32:21.127Z,16.20
2022-09-15T03:35:07.610Z,16.30
2022-09-15T03:37:53.249Z,16.30
2022-09-15T03:40:39.157Z,16.30
2022-09-15T03:43:24.976Z,16.30
2022-09-15T03:46:12.017Z,16.30
2022-09-15T03:48:57.709Z,16.30
2022-09-15T03:51:43.313Z,16.20
2022-09-15T03:54:29.206Z,16.30
2022-09-15T03:57:15.018Z,16.40
2022-09-15T04:00:00.379Z,16.50
2022-09-15T04:02:46.048Z,16.50
2022-09-15T04:05:31.451Z,16.40
2022-09-15T04:08:17.020Z,16.50
2022-09-15T04:11:10.570Z,16.40
2022-09-15T04:13:56.644Z,16.50
2022-09-15T04:16:42.541Z,16.50
2022-09-15T04:19:28.051Z,16.40
2022-09-15T04:22:17.658Z,16.50
2022-09-15T04:25:03.734Z,16.50
2022-09-15T04:27:49.440Z,16.60
2022-09-15T04:30:37.033Z,16.60
2022-09-15T04:33:22.693Z,16.60
2022-09-15T04:36:11.097Z,16.50
2022-09-15T04:38:58.239Z,16.50
2022-09-15T04:41:44.300Z,16.50
2022-09-15T04:44:29.803Z,16.30
2022-09-15T04:47:15.484Z,16.40
2022-09-15T04:50:00.874Z,16.40
2022-09-15T04:52:46.493Z,16.50
2022-09-15T04:55:33.074Z,16.50
2022-09-15T04:58:18.908Z,16.50
2022-09-15T05:01:13.427Z,16.60
2022-09-15T05:04:02.015Z,16.50
2022-09-15T05:06:48.085Z,16.60
2022-09-15T05:09:33.877Z,16.50
2022-09-15T05:12:19.593Z,16.50
2022-09-15T05:15:06.408Z,16.60
2022-09-15T05:17:52.925Z,17.00
2022-09-15T05:20:38.868Z,17.20
2022-09-15T05:23:24.404Z,17.40
2022-09-15T05:26:14.181Z,17.40
2022-09-15T05:29:00.301Z,17.50
2022-09-15T05:31:46.169Z,17.60
2022-09-15T05:34:31.644Z,17.60
2022-09-15T05:37:17.240Z,17.70
2022-09-15T05:40:08.251Z,17.80
2022-09-15T05:42:54.193Z,17.80
2022-09-15T05:45:42.716Z,17.80
2022-09-15T05:48:28.791Z,18.00
2022-09-15T05:51:14.622Z,17.90
2022-09-15T05:54:00.640Z,17.90
2022-09-15T05:56:46.377Z,18.10
2022-09-15T05:59:31.692Z,18.10
2022-09-15T06:02:17.744Z,18.00
2022-09-15T06:05:03.578Z,18.10
2022-09-15T06:07:48.891Z,18.00
2022-09-15T06:10:34.611Z,17.90
2022-09-15T06:13:20.241Z,18.00
2022-09-15T06:16:07.588Z,17.90
2022-09-15T06:18:54.090Z,18.00
2022-09-15T06:21:39.538Z,17.90
2022-09-15T06:24:25.441Z,17.90
2022-09-15T06:27:11.046Z,18.00
2022-09-15T06:29:56.811Z,17.90
2022-09-15T06:32:46.259Z,17.90
2022-09-15T06:35:34.092Z,17.90
2022-09-15T06:38:19.608Z,18.10
2022-09-15T06:41:05.544Z,18.10
2022-09-15T06:43:51.395Z,18.10
2022-09-15T06:46:37.413Z,18.20
2022-09-15T06:49:23.251Z,18.10
2022-09-15T06:52:08.616Z,18.30
2022-09-15T06:54:54.415Z,18.40
2022-09-15T06:57:39.923Z,18.40
2022-09-15T07:00:25.968Z,18.30
2022-09-15T07:03:11.953Z,18.30
2022-09-15T07:05:57.793Z,18.30
2022-09-15T07:08:43.504Z,18.40
2022-09-15T07:11:29.961Z,18.30
2022-09-15T07:14:15.571Z,18.40
2022-09-15T07:17:01.246Z,19.10
2022-09-15T07:19:46.811Z,18.30
2022-09-15T07:22:32.405Z,18.30
2022-09-15T07:25:17.911Z,18.50
2022-09-15T07:28:03.757Z,18.50
2022-09-15T07:30:50.923Z,18.70
2022-09-15T07:33:36.743Z,18.60
2022-09-15T07:36:22.500Z,18.60
2022-09-15T07:39:08.274Z,18.60
2022-09-15T07:41:54.071Z,18.70
2022-09-15T07:44:39.900Z,18.70
2022-09-15T07:47:25.664Z,18.80
2022-09-15T07:50:11.284Z,18.90
2022-09-15T07:52:57.138Z,19.00
2022-09-15T07:55:42.645Z,19.10
2022-09-15T07:58:28.536Z,18.70
2022-09-15T08:01:17.715Z,19.20
2022-09-15T08:04:03.509Z,19.10
2022-09-15T08:06:48.963Z,19.10
2022-09-15T08:09:34.699Z,18.90
2022-09-15T08:12:20.393Z,19.00
2022-09-15T08:15:06.264Z,18.90
2022-09-15T08:17:51.672Z,18.90
2022-09-15T08:20:40.703Z,18.90
2022-09-15T08:23:26.282Z,18.70
2022-09-15T08:26:14.314Z,18.80
2022-09-15T08:29:00.703Z,18.40
2022-09-15T08:31:46.244Z,18.40
2022-09-15T08:34:31.612Z,18.50
2022-09-15T08:37:17.296Z,18.40
2022-09-15T08:40:03.366Z,18.40
2022-09-15T08:42:50.883Z,18.40
2022-09-15T08:45:42.026Z,18.40
2022-09-15T08:48:30.363Z,18.40
2022-09-15T08:51:22.833Z,18.60
2022-09-15T08:54:12.803Z,18.70
2022-09-15T08:56:58.467Z,18.80
2022-09-15T08:59:44.483Z,19.00
2022-09-15T09:02:38.009Z,19.10
2022-09-15T09:05:40.724Z,19.20
2022-09-15T09:08:29.470Z,19.20
2022-09-15T09:11:37.421Z,19.20
2022-09-15T09:14:27.140Z,19.40
2022-09-15T09:17:31.528Z,19.40
2022-09-15T09:20:20.169Z,19.30
2022-09-15T09:23:08.989Z,19.30
2022-09-15T09:25:56.089Z,19.30
2022-09-15T09:28:49.506Z,19.30
2022-09-15T09:31:35.980Z,19.30
2022-09-15T09:34:21.508Z,19.40
2022-09-15T09:37:11.318Z,19.50
2022-09-15T09:39:56.901Z,19.50
2022-09-15T09:42:43.380Z,19.60
2022-09-15T09:45:29.143Z,19.80
2022-09-15T09:48:18.139Z,19.80
2022-09-15T09:51:03.820Z,19.70
2022-09-15T09:53:53.475Z,19.80
2022-09-15T09:56:39.916Z,19.70
2022-09-15T09:59:40.916Z,19.80
2022-09-15T10:02:27.263Z,19.90
2022-09-15T10:05:20.198Z,19.80
2022-09-15T10:08:05.553Z,19.90
2022-09-15T10:10:52.772Z,19.90
2022-09-15T10:13:53.523Z,20.00
2022-09-15T10:16:39.438Z,20.00
2022-09-15T10:19:25.049Z,19.90
2022-09-15T10:22:21.863Z,19.90
2022-09-15T10:25:19.546Z,19.90
2022-09-15T10:28:11.188Z,20.00
2022-09-15T10:31:03.075Z,20.00
2022-09-15T10:33:48.401Z,20.00
2022-09-15T10:36:34.012Z,20.00
2022-09-15T10:39:19.640Z,20.00
2022-09-15T10:42:13.879Z,20.10
2022-09-15T10:45:02.619Z,20.20
2022-09-15T10:47:54.291Z,20.30
2022-09-15T10:50:54.493Z,20.30
2022-09-15T10:53:57.606Z,20.20
2022-09-15T10:56:46.236Z,20.20
2022-09-15T10:59:36.010Z,20.20
2022-09-15T11:02:33.761Z,20.30
2022-09-15T11:05:44.196Z,20.20
2022-09-15T11:08:31.867Z,20.30
2022-09-15T11:11:32.415Z,20.30
2022-09-15T11:14:36.906Z,20.10
2022-09-15T11:17:51.973Z,20.20
2022-09-15T11:21:00.803Z,20.30
2022-09-15T11:23:57.172Z,20.40
2022-09-15T11:26:49.340Z,20.40
2022-09-15T11:29:40.416Z,20.50
2022-09-15T11:32:29.786Z,20.50
2022-09-15T11:35:34.036Z,20.60
2022-09-15T11:38:43.013Z,20.60
2022-09-15T11:41:33.613Z,20.70
2022-09-15T11:44:33.390Z,20.80
2022-09-15T11:47:39.584Z,21.00
2022-09-15T11:50:33.931Z,21.10
2022-09-15T11:53:25.636Z,21.20
2022-09-15T11:56:29.497Z,21.30
2022-09-15T11:59:19.116Z,21.40
2022-09-15T12:02:23.224Z,21.50
2022-09-15T12:05:29.008Z,21.60
2022-09-15T12:08:17.607Z,21.60
2022-09-15T12:11:05.987Z,21.60
2022-09-15T12:13:52.396Z,21.60
2022-09-15T12:16:38.037Z,21.70
2022-09-15T12:19:33.533Z,21.70
2022-09-15T12:22:25.341Z,21.70
2022-09-15T12:25:13.589Z,21.70
2022-09-15T12:28:17.803Z,21.80
2022-09-15T12:31:22.571Z,21.90
2022-09-15T12:34:30.674Z,22.00
2022-09-15T12:37:18.875Z,22.10
2022-09-15T12:40:24.664Z,22.50
2022-09-15T12:43:13.519Z,22.10
2022-09-15T12:46:00.479Z,22.10
2022-09-15T12:48:47.531Z,22.00
2022-09-15T12:51:33.637Z,22.00
2022-09-15T12:54:24.127Z,21.90
2022-09-15T12:57:19.569Z,21.90
2022-09-15T13:00:17.568Z,21.80
2022-09-15T13:03:04.309Z,21.80
2022-09-15T13:05:51.295Z,21.80
2022-09-15T13:08:37.485Z,21.80
2022-09-15T13:11:38.866Z,22.10
2022-09-15T13:14:32.928Z,22.20
2022-09-15T13:17:25.071Z,22.50
2022-09-15T13:20:15.442Z,22.80
2022-09-15T13:23:01.811Z,23.00
2022-09-15T13:25:48.223Z,23.20
2022-09-15T13:28:34.172Z,23.20
2022-09-15T13:31:19.915Z,23.10
2022-09-15T13:40:33.399Z,22.70
2022-09-15T13:43:41.041Z,22.50
2022-09-15T13:46:41.723Z,22.30
2022-09-15T13:49:27.639Z,22.20
2022-09-15T13:52:13.193Z,22.10
2022-09-15T13:55:08.126Z,22.00
2022-09-15T14:01:02.303Z,21.90
2022-09-15T14:03:53.689Z,21.90
2022-09-15T14:06:40.536Z,21.90
2022-09-15T14:09:26.703Z,21.80
2022-09-15T14:12:12.928Z,21.80
2022-09-15T14:15:00.442Z,21.70
2022-09-15T14:17:46.136Z,21.80
2022-09-15T14:20:32.651Z,21.80
2022-09-15T14:23:18.415Z,21.90
2022-09-15T14:26:05.308Z,21.90
2022-09-15T14:29:01.454Z,22.10
2022-09-15T14:31:47.697Z,22.10
2022-09-15T14:34:35.936Z,22.10
2022-09-15T14:37:24.059Z,22.10
2022-09-15T14:40:30.009Z,22.10
2022-09-15T14:43:30.428Z,22.00
2022-09-15T14:46:20.829Z,22.00
2022-09-15T14:49:10.497Z,22.10
2022-09-15T14:51:57.454Z,22.10
2022-09-15T14:54:42.783Z,22.30
2022-09-15T14:57:31.520Z,22.50
2022-09-15T15:00:20.091Z,22.80
2022-09-15T15:03:24.400Z,22.90
2022-09-15T15:06:30.287Z,22.80
2022-09-15T15:09:18.460Z,22.60
2022-09-15T15:12:06.340Z,22.30
2022-09-15T15:14:53.185Z,22.20
2022-09-15T15:17:45.287Z,22.00
2022-09-15T15:20:30.602Z,21.80
2022-09-15T15:23:16.174Z,21.70
2022-09-15T15:26:20.424Z,21.60
2022-09-15T15:29:29.019Z,21.60
2022-09-15T15:32:20.299Z,21.50
2022-09-15T15:35:05.843Z,21.50
2022-09-15T15:38:05.401Z,21.50
2022-09-15T15:40:59.177Z,21.50
2022-09-15T15:43:54.330Z,21.50
2022-09-15T15:46:49.830Z,21.50
2022-09-15T15:49:42.322Z,21.50
2022-09-15T15:52:36.679Z,21.50
2022-09-15T15:55:23.713Z,21.60
2022-09-15T15:58:10.853Z,20.70
2022-09-15T16:00:57.139Z,21.50
2022-09-15T16:03:42.913Z,21.40
2022-09-15T16:06:28.541Z,21.40
2022-09-15T16:09:15.353Z,21.40
2022-09-15T16:12:00.585Z,21.30
2022-09-15T16:14:46.331Z,21.30
2022-09-15T16:17:34.018Z,21.20
2022-09-15T16:20:19.866Z,21.20
2022-09-15T16:23:05.573Z,21.10
2022-09-15T16:25:54.291Z,21.20
2022-09-15T16:28:39.574Z,21.20
2022-09-15T16:31:25.236Z,21.00
2022-09-15T16:34:13.612Z,21.00
2022-09-15T16:36:59.001Z,21.00
2022-09-15T16:39:44.848Z,21.00
2022-09-15T16:42:30.564Z,21.10
2022-09-15T16:45:35.133Z,21.10
2022-09-15T16:48:23.466Z,21.00
2022-09-15T16:51:26.721Z,21.10
2022-09-15T16:54:16.453Z,20.90
2022-09-15T16:57:02.324Z,20.90
2022-09-15T16:59:47.654Z,20.80
2022-09-15T17:02:33.136Z,20.70
2022-09-15T17:05:20.931Z,20.70
2022-09-15T17:08:07.669Z,20.80
2022-09-15T17:10:53.562Z,20.70
2022-09-15T17:13:39.169Z,20.70
2022-09-15T17:16:24.887Z,20.90
2022-09-15T17:19:10.505Z,20.90
2022-09-15T17:21:56.180Z,21.00
2022-09-15T17:24:41.889Z,21.00
2022-09-15T17:27:27.336Z,21.10
2022-09-15T17:30:13.224Z,21.20
2022-09-15T17:33:08.318Z,21.20
2022-09-15T17:35:53.824Z,21.20
2022-09-15T17:38:41.177Z,21.30
2022-09-15T17:41:26.832Z,21.20
2022-09-15T17:44:12.395Z,21.20
2022-09-15T17:46:58.781Z,21.20
2022-09-15T17:49:44.601Z,21.10
2022-09-15T17:52:30.106Z,21.10
2022-09-15T17:55:19.935Z,21.10
2022-09-15T17:58:06.337Z,21.00
2022-09-15T18:00:52.842Z,21.00
2022-09-15T18:03:38.722Z,20.90
2022-09-15T18:06:24.508Z,20.90
2022-09-15T18:09:09.763Z,20.90
2022-09-15T18:11:56.182Z,20.90
2022-09-15T18:14:41.896Z,20.90
2022-09-15T18:17:27.857Z,20.80
2022-09-15T18:20:16.508Z,20.90
2022-09-15T18:23:02.530Z,20.90
2022-09-15T18:25:49.053Z,20.80
2022-09-15T18:28:34.504Z,20.90
2022-09-15T18:31:20.045Z,20.80
2022-09-15T18:34:06.118Z,20.80
2022-09-15T18:36:51.625Z,20.70
2022-09-15T18:39:37.404Z,20.70
2022-09-15T18:42:28.452Z,20.70
2022-09-15T18:45:18.652Z,20.70
2022-09-15T18:48:07.077Z,20.70
2022-09-15T18:50:55.726Z,20.70
2022-09-15T18:53:41.029Z,20.70
2022-09-15T18:56:26.846Z,20.70
2022-09-15T18:59:15.546Z,20.60
2022-09-15T19:02:03.522Z,20.40
2022-09-15T19:04:48.961Z,20.20
2022-09-15T19:07:34.371Z,20.10
2022-09-15T19:10:20.303Z,20.00
2022-09-15T19:13:06.392Z,19.80
2022-09-15T19:15:53.607Z,19.70
2022-09-15T19:18:39.186Z,19.50
2022-09-15T19:21:27.357Z,19.50
2022-09-15T19:24:12.895Z,19.40
2022-09-15T19:26:58.407Z,19.40
2022-09-15T19:29:43.858Z,19.40
2022-09-15T19:32:29.303Z,19.30
2022-09-15T19:35:15.046Z,19.30
2022-09-15T19:38:00.821Z,19.20
2022-09-15T19:40:47.299Z,19.10
2022-09-15T19:43:34.816Z,19.10
2022-09-15T19:46:25.577Z,19.00
2022-09-15T19:49:11.497Z,19.00
2022-09-15T19:51:57.091Z,18.90
2022-09-15T19:54:42.457Z,18.80
2022-09-15T19:57:28.225Z,18.80
2022-09-15T20:00:14.873Z,18.70
2022-09-15T20:03:00.509Z,18.70
2022-09-15T20:05:53.701Z,18.70
2022-09-15T20:08:41.593Z,18.60
2022-09-15T20:11:28.324Z,18.60
2022-09-15T20:14:14.365Z,18.50
2022-09-15T20:17:01.211Z,18.50
2022-09-15T20:19:47.406Z,18.40
2022-09-15T20:22:32.805Z,18.40
2022-09-15T20:25:18.405Z,18.40
2022-09-15T20:28:04.650Z,18.40
2022-09-15T20:31:16.463Z,18.40
2022-09-15T20:34:05.327Z,18.30
2022-09-15T20:36:50.928Z,18.20
2022-09-15T20:39:36.771Z,18.20
2022-09-15T20:42:22.231Z,18.20
2022-09-15T20:45:08.278Z,18.10
2022-09-15T20:47:54.426Z,18.10
2022-09-15T20:50:39.821Z,18.00
2022-09-15T20:53:25.277Z,18.00
2022-09-15T20:56:11.861Z,17.90
2022-09-15T20:58:59.310Z,17.90
2022-09-15T21:01:46.472Z,17.90
2022-09-15T21:04:32.451Z,17.90
2022-09-15T21:07:18.016Z,17.90
2022-09-15T21:10:03.696Z,17.90
2022-09-15T21:12:49.052Z,17.80
2022-09-15T21:15:34.777Z,17.80
2022-09-15T21:18:20.814Z,17.70
2022-09-15T21:21:12.326Z,17.80
2022-09-15T21:24:01.862Z,17.70
2022-09-15T21:27:06.086Z,17.70
2022-09-15T21:29:51.706Z,17.70
2022-09-15T21:32:37.242Z,17.60
2022-09-15T21:35:22.959Z,17.60
2022-09-15T21:38:10.137Z,17.60
2022-09-15T21:40:55.864Z,17.60
2022-09-15T21:43:43.158Z,17.60
2022-09-15T21:46:30.981Z,17.60
2022-09-15T21:49:18.108Z,17.50
2022-09-15T21:52:03.453Z,17.50
2022-09-15T21:54:49.106Z,17.50
2022-09-15T21:57:34.704Z,17.40
2022-09-15T22:00:20.357Z,17.40
2022-09-15T22:03:06.167Z,17.30
2022-09-15T22:05:51.984Z,17.30
2022-09-15T22:08:39.052Z,17.30
2022-09-15T22:11:25.208Z,17.20
2022-09-15T22:14:11.917Z,17.10
2022-09-15T22:16:58.265Z,17.10
2022-09-15T22:19:43.793Z,17.10
2022-09-15T22:22:30.778Z,17.20
2022-09-15T22:25:21.174Z,17.10
2022-09-15T22:28:07.383Z,17.10
2022-09-15T22:31:00.545Z,17.10
2022-09-15T22:33:47.201Z,17.10
2022-09-15T22:36:33.226Z,17.00
2022-09-15T22:39:19.084Z,17.00
2022-09-15T22:42:04.721Z,17.00
2022-09-15T22:44:50.689Z,17.00
2022-09-15T22:47:36.093Z,16.90
2022-09-15T22:50:21.619Z,17.00
2022-09-15T22:53:07.118Z,16.90
2022-09-15T22:56:04.933Z,16.90
2022-09-15T22:58:50.715Z,16.90
2022-09-15T23:01:36.379Z,16.80
2022-09-15T23:04:22.228Z,16.80
2022-09-15T23:07:07.743Z,16.80
2022-09-15T23:09:53.219Z,16.80
2022-09-15T23:12:38.863Z,16.80
2022-09-15T23:15:24.538Z,16.80
2022-09-15T23:18:10.280Z,16.80
2022-09-15T23:20:57.878Z,16.80
2022-09-15T23:23:48.874Z,16.70
2022-09-15T23:26:34.654Z,16.70
2022-09-15T23:29:20.374Z,16.70
2022-09-15T23:32:06.081Z,16.70
2022-09-15T23:34:52.944Z,16.70
2022-09-15T23:37:38.584Z,16.70
2022-09-15T23:40:26.024Z,16.60
2022-09-15T23:43:11.836Z,16.60
2022-09-15T23:45:57.511Z,16.60
2022-09-15T23:48:43.523Z,16.70
2022-09-15T23:51:29.034Z,16.60
2022-09-15T23:54:14.521Z,16.60
2022-09-15T23:57:00.061Z,16.60
2022-09-15T23:59:45.474Z,16.60
